sensor_id;sensor_type;location;lat;lon;timestamp;P1;durP1;ratioP1;P2;durP2;ratioP2
23155;SDS011;11746;50.876;4.246;2023-08-08T00:00:42;6.70;;;2.40;;
23155;SDS011;11746;50.876;4.246;2023-08-08T00:03:08;5.65;;;2.13;;
23155;SDS011;11746;50.876;4.246;2023-08-08T00:05:34;7.32;;;1.90;;
23155;SDS011;11746;50.876;4.246;2023-08-08T00:07:59;5.80;;;1.70;;
23155;SDS011;11746;50.876;4.246;2023-08-08T00:10:25;6.60;;;2.05;;
23155;SDS011;11746;50.876;4.246;2023-08-08T00:12:53;6.75;;;1.90;;
23155;SDS011;11746;50.876;4.246;2023-08-08T00:15:21;4.97;;;1.63;;
23155;SDS011;11746;50.876;4.246;2023-08-08T00:17:46;9.50;;;2.20;;
23155;SDS011;11746;50.876;4.246;2023-08-08T00:20:14;3.53;;;1.65;;
23155;SDS011;11746;50.876;4.246;2023-08-08T00:22:42;7.68;;;2.30;;
23155;SDS011;11746;50.876;4.246;2023-08-08T00:25:08;8.85;;;1.80;;
23155;SDS011;11746;50.876;4.246;2023-08-08T00:27:34;3.72;;;1.73;;
23155;SDS011;11746;50.876;4.246;2023-08-08T00:30:00;6.45;;;2.35;;
23155;SDS011;11746;50.876;4.246;2023-08-08T00:32:30;7.35;;;1.98;;
23155;SDS011;11746;50.876;4.246;2023-08-08T00:34:56;6.70;;;2.22;;
23155;SDS011;11746;50.876;4.246;2023-08-08T00:37:21;6.65;;;2.13;;
23155;SDS011;11746;50.876;4.246;2023-08-08T00:39:49;2.92;;;2.15;;
23155;SDS011;11746;50.876;4.246;2023-08-08T00:42:15;6.57;;;2.30;;
23155;SDS011;11746;50.876;4.246;2023-08-08T00:44:40;6.68;;;2.13;;
23155;SDS011;11746;50.876;4.246;2023-08-08T00:47:09;4.10;;;2.22;;
23155;SDS011;11746;50.876;4.246;2023-08-08T00:49:35;5.75;;;2.00;;
23155;SDS011;11746;50.876;4.246;2023-08-08T00:52:01;4.75;;;2.13;;
23155;SDS011;11746;50.876;4.246;2023-08-08T00:54:27;8.95;;;2.60;;
23155;SDS011;11746;50.876;4.246;2023-08-08T00:56:53;8.38;;;2.53;;
23155;SDS011;11746;50.876;4.246;2023-08-08T00:59:24;8.02;;;2.25;;
23155;SDS011;11746;50.876;4.246;2023-08-08T01:01:49;4.20;;;2.05;;
23155;SDS011;11746;50.876;4.246;2023-08-08T01:04:17;8.07;;;2.20;;
23155;SDS011;11746;50.876;4.246;2023-08-08T01:06:53;7.10;;;2.40;;
23155;SDS011;11746;50.876;4.246;2023-08-08T01:09:41;6.43;;;2.40;;
23155;SDS011;11746;50.876;4.246;2023-08-08T01:12:20;7.03;;;2.63;;
23155;SDS011;11746;50.876;4.246;2023-08-08T01:14:47;8.00;;;2.17;;
23155;SDS011;11746;50.876;4.246;2023-08-08T01:17:12;10.30;;;2.95;;
23155;SDS011;11746;50.876;4.246;2023-08-08T01:19:41;7.15;;;2.67;;
23155;SDS011;11746;50.876;4.246;2023-08-08T01:22:09;8.27;;;2.30;;
23155;SDS011;11746;50.876;4.246;2023-08-08T01:27:10;6.53;;;2.25;;
23155;SDS011;11746;50.876;4.246;2023-08-08T01:29:36;8.60;;;2.65;;
23155;SDS011;11746;50.876;4.246;2023-08-08T01:32:06;7.38;;;2.55;;
23155;SDS011;11746;50.876;4.246;2023-08-08T01:34:34;7.18;;;2.47;;
23155;SDS011;11746;50.876;4.246;2023-08-08T01:39:38;10.23;;;2.60;;
23155;SDS011;11746;50.876;4.246;2023-08-08T01:42:06;8.20;;;2.72;;
23155;SDS011;11746;50.876;4.246;2023-08-08T01:44:32;9.45;;;2.67;;
23155;SDS011;11746;50.876;4.246;2023-08-08T01:46:59;5.40;;;2.50;;
23155;SDS011;11746;50.876;4.246;2023-08-08T01:49:25;6.85;;;2.50;;
23155;SDS011;11746;50.876;4.246;2023-08-08T01:51:56;10.52;;;3.00;;
23155;SDS011;11746;50.876;4.246;2023-08-08T01:54:21;7.57;;;2.90;;
23155;SDS011;11746;50.876;4.246;2023-08-08T01:56:49;9.65;;;3.20;;
23155;SDS011;11746;50.876;4.246;2023-08-08T01:59:15;7.80;;;2.70;;
23155;SDS011;11746;50.876;4.246;2023-08-08T02:01:40;8.82;;;3.08;;
23155;SDS011;11746;50.876;4.246;2023-08-08T02:04:06;8.50;;;2.78;;
23155;SDS011;11746;50.876;4.246;2023-08-08T02:06:32;11.50;;;2.80;;
23155;SDS011;11746;50.876;4.246;2023-08-08T02:08:57;8.80;;;2.60;;
23155;SDS011;11746;50.876;4.246;2023-08-08T02:11:23;5.72;;;2.60;;
23155;SDS011;11746;50.876;4.246;2023-08-08T02:13:49;9.98;;;3.47;;
23155;SDS011;11746;50.876;4.246;2023-08-08T02:16:14;9.07;;;2.92;;
23155;SDS011;11746;50.876;4.246;2023-08-08T02:18:40;6.85;;;2.72;;
23155;SDS011;11746;50.876;4.246;2023-08-08T02:21:08;11.38;;;3.45;;
23155;SDS011;11746;50.876;4.246;2023-08-08T02:23:34;13.13;;;2.63;;
23155;SDS011;11746;50.876;4.246;2023-08-08T02:26:00;9.90;;;3.38;;
23155;SDS011;11746;50.876;4.246;2023-08-08T02:28:25;10.85;;;3.40;;
23155;SDS011;11746;50.876;4.246;2023-08-08T02:30:51;10.38;;;3.20;;
23155;SDS011;11746;50.876;4.246;2023-08-08T02:33:18;8.43;;;2.75;;
23155;SDS011;11746;50.876;4.246;2023-08-08T02:35:46;12.85;;;3.47;;
23155;SDS011;11746;50.876;4.246;2023-08-08T02:38:11;12.68;;;3.00;;
23155;SDS011;11746;50.876;4.246;2023-08-08T02:40:37;6.40;;;2.55;;
23155;SDS011;11746;50.876;4.246;2023-08-08T02:43:03;6.82;;;2.90;;
23155;SDS011;11746;50.876;4.246;2023-08-08T02:45:29;9.88;;;2.72;;
23155;SDS011;11746;50.876;4.246;2023-08-08T02:47:55;8.20;;;3.13;;
23155;SDS011;11746;50.876;4.246;2023-08-08T02:50:20;9.98;;;3.20;;
23155;SDS011;11746;50.876;4.246;2023-08-08T02:52:49;9.38;;;3.20;;
23155;SDS011;11746;50.876;4.246;2023-08-08T02:55:15;8.77;;;3.03;;
23155;SDS011;11746;50.876;4.246;2023-08-08T02:57:41;15.25;;;3.22;;
23155;SDS011;11746;50.876;4.246;2023-08-08T03:00:06;9.70;;;2.75;;
23155;SDS011;11746;50.876;4.246;2023-08-08T03:02:37;9.98;;;2.67;;
23155;SDS011;11746;50.876;4.246;2023-08-08T03:05:03;9.27;;;3.00;;
23155;SDS011;11746;50.876;4.246;2023-08-08T03:07:31;12.45;;;2.85;;
23155;SDS011;11746;50.876;4.246;2023-08-08T03:09:57;9.25;;;3.15;;
23155;SDS011;11746;50.876;4.246;2023-08-08T03:12:22;10.00;;;3.30;;
23155;SDS011;11746;50.876;4.246;2023-08-08T03:14:50;7.30;;;3.33;;
23155;SDS011;11746;50.876;4.246;2023-08-08T03:17:16;8.85;;;2.92;;
23155;SDS011;11746;50.876;4.246;2023-08-08T03:19:41;9.50;;;3.22;;
23155;SDS011;11746;50.876;4.246;2023-08-08T03:22:07;9.93;;;3.05;;
23155;SDS011;11746;50.876;4.246;2023-08-08T03:24:32;11.80;;;3.33;;
23155;SDS011;11746;50.876;4.246;2023-08-08T03:27:02;10.35;;;3.70;;
23155;SDS011;11746;50.876;4.246;2023-08-08T03:29:31;8.40;;;3.47;;
23155;SDS011;11746;50.876;4.246;2023-08-08T03:31:57;7.75;;;3.13;;
23155;SDS011;11746;50.876;4.246;2023-08-08T03:34:24;12.48;;;4.00;;
23155;SDS011;11746;50.876;4.246;2023-08-08T03:36:53;10.98;;;3.63;;
23155;SDS011;11746;50.876;4.246;2023-08-08T03:39:19;7.30;;;3.50;;
23155;SDS011;11746;50.876;4.246;2023-08-08T03:41:44;15.18;;;3.90;;
23155;SDS011;11746;50.876;4.246;2023-08-08T03:44:12;10.75;;;3.88;;
23155;SDS011;11746;50.876;4.246;2023-08-08T03:46:43;11.05;;;3.85;;
23155;SDS011;11746;50.876;4.246;2023-08-08T03:49:08;13.43;;;3.97;;
23155;SDS011;11746;50.876;4.246;2023-08-08T03:51:36;11.95;;;4.25;;
23155;SDS011;11746;50.876;4.246;2023-08-08T03:54:04;13.30;;;4.13;;
23155;SDS011;11746;50.876;4.246;2023-08-08T03:56:30;11.05;;;3.90;;
23155;SDS011;11746;50.876;4.246;2023-08-08T03:58:55;12.68;;;4.07;;
23155;SDS011;11746;50.876;4.246;2023-08-08T04:01:22;14.80;;;5.15;;
23155;SDS011;11746;50.876;4.246;2023-08-08T04:03:48;9.85;;;3.92;;
23155;SDS011;11746;50.876;4.246;2023-08-08T04:06:13;13.55;;;4.32;;
23155;SDS011;11746;50.876;4.246;2023-08-08T04:08:39;14.02;;;4.68;;
23155;SDS011;11746;50.876;4.246;2023-08-08T04:11:05;15.10;;;4.13;;
23155;SDS011;11746;50.876;4.246;2023-08-08T04:13:33;10.18;;;4.10;;
23155;SDS011;11746;50.876;4.246;2023-08-08T04:15:58;8.57;;;4.40;;
23155;SDS011;11746;50.876;4.246;2023-08-08T04:18:28;13.32;;;5.07;;
23155;SDS011;11746;50.876;4.246;2023-08-08T04:20:56;11.00;;;4.40;;
23155;SDS011;11746;50.876;4.246;2023-08-08T04:23:24;10.57;;;4.50;;
23155;SDS011;11746;50.876;4.246;2023-08-08T04:25:51;12.93;;;4.50;;
23155;SDS011;11746;50.876;4.246;2023-08-08T04:28:17;10.27;;;4.50;;
23155;SDS011;11746;50.876;4.246;2023-08-08T04:30:45;13.05;;;4.65;;
23155;SDS011;11746;50.876;4.246;2023-08-08T04:33:13;15.10;;;4.85;;
23155;SDS011;11746;50.876;4.246;2023-08-08T04:35:39;10.88;;;4.70;;
23155;SDS011;11746;50.876;4.246;2023-08-08T04:38:04;12.23;;;4.47;;
23155;SDS011;11746;50.876;4.246;2023-08-08T04:40:30;12.07;;;4.63;;
23155;SDS011;11746;50.876;4.246;2023-08-08T04:42:56;11.85;;;5.43;;
23155;SDS011;11746;50.876;4.246;2023-08-08T04:45:21;14.15;;;5.10;;
23155;SDS011;11746;50.876;4.246;2023-08-08T04:47:47;10.95;;;4.47;;
23155;SDS011;11746;50.876;4.246;2023-08-08T04:50:15;11.05;;;4.53;;
23155;SDS011;11746;50.876;4.246;2023-08-08T04:52:43;13.43;;;4.40;;
23155;SDS011;11746;50.876;4.246;2023-08-08T04:55:09;11.07;;;4.80;;
23155;SDS011;11746;50.876;4.246;2023-08-08T04:57:34;15.57;;;4.90;;
23155;SDS011;11746;50.876;4.246;2023-08-08T05:00:00;13.60;;;4.45;;
23155;SDS011;11746;50.876;4.246;2023-08-08T05:02:30;11.40;;;4.03;;
23155;SDS011;11746;50.876;4.246;2023-08-08T05:04:55;13.73;;;4.28;;
23155;SDS011;11746;50.876;4.246;2023-08-08T05:07:21;14.65;;;5.18;;
23155;SDS011;11746;50.876;4.246;2023-08-08T05:09:47;15.15;;;5.45;;
23155;SDS011;11746;50.876;4.246;2023-08-08T05:12:12;11.38;;;4.40;;
23155;SDS011;11746;50.876;4.246;2023-08-08T05:14:40;13.73;;;4.43;;
23155;SDS011;11746;50.876;4.246;2023-08-08T05:17:08;8.90;;;3.88;;
23155;SDS011;11746;50.876;4.246;2023-08-08T05:19:34;16.73;;;4.53;;
23155;SDS011;11746;50.876;4.246;2023-08-08T05:22:02;17.25;;;4.40;;
23155;SDS011;11746;50.876;4.246;2023-08-08T05:24:30;13.40;;;4.65;;
23155;SDS011;11746;50.876;4.246;2023-08-08T05:26:58;10.70;;;4.10;;
23155;SDS011;11746;50.876;4.246;2023-08-08T05:29:23;9.90;;;4.13;;
23155;SDS011;11746;50.876;4.246;2023-08-08T05:31:49;15.80;;;4.50;;
23155;SDS011;11746;50.876;4.246;2023-08-08T05:34:15;13.00;;;4.70;;
23155;SDS011;11746;50.876;4.246;2023-08-08T05:36:40;14.43;;;5.00;;
23155;SDS011;11746;50.876;4.246;2023-08-08T05:39:06;11.13;;;4.10;;
23155;SDS011;11746;50.876;4.246;2023-08-08T05:41:32;11.43;;;4.25;;
23155;SDS011;11746;50.876;4.246;2023-08-08T05:43:58;12.05;;;4.40;;
23155;SDS011;11746;50.876;4.246;2023-08-08T05:46:24;13.95;;;4.00;;
23155;SDS011;11746;50.876;4.246;2023-08-08T05:48:49;16.20;;;3.60;;
23155;SDS011;11746;50.876;4.246;2023-08-08T05:51:17;12.25;;;4.00;;
23155;SDS011;11746;50.876;4.246;2023-08-08T05:53:45;16.17;;;4.20;;
23155;SDS011;11746;50.876;4.246;2023-08-08T05:56:11;13.68;;;3.90;;
23155;SDS011;11746;50.876;4.246;2023-08-08T05:58:37;13.00;;;4.65;;
23155;SDS011;11746;50.876;4.246;2023-08-08T06:01:02;13.30;;;4.18;;
23155;SDS011;11746;50.876;4.246;2023-08-08T06:03:34;16.02;;;4.55;;
23155;SDS011;11746;50.876;4.246;2023-08-08T06:06:00;12.30;;;4.50;;
23155;SDS011;11746;50.876;4.246;2023-08-08T06:08:26;14.50;;;4.50;;
23155;SDS011;11746;50.876;4.246;2023-08-08T06:10:51;9.98;;;3.78;;
23155;SDS011;11746;50.876;4.246;2023-08-08T06:13:19;9.60;;;3.40;;
23155;SDS011;11746;50.876;4.246;2023-08-08T06:15:47;12.98;;;4.22;;
23155;SDS011;11746;50.876;4.246;2023-08-08T06:18:16;13.45;;;4.30;;
23155;SDS011;11746;50.876;4.246;2023-08-08T06:20:44;15.20;;;4.10;;
23155;SDS011;11746;50.876;4.246;2023-08-08T06:23:10;13.95;;;3.72;;
23155;SDS011;11746;50.876;4.246;2023-08-08T06:25:38;13.90;;;4.00;;
23155;SDS011;11746;50.876;4.246;2023-08-08T06:28:04;13.02;;;4.13;;
23155;SDS011;11746;50.876;4.246;2023-08-08T06:30:31;11.80;;;3.13;;
23155;SDS011;11746;50.876;4.246;2023-08-08T06:33:04;10.23;;;3.85;;
23155;SDS011;11746;50.876;4.246;2023-08-08T06:35:29;15.10;;;3.97;;
23155;SDS011;11746;50.876;4.246;2023-08-08T06:37:55;11.13;;;3.30;;
23155;SDS011;11746;50.876;4.246;2023-08-08T06:40:23;9.23;;;3.28;;
23155;SDS011;11746;50.876;4.246;2023-08-08T06:42:49;15.07;;;3.28;;
23155;SDS011;11746;50.876;4.246;2023-08-08T06:45:14;13.60;;;3.45;;
23155;SDS011;11746;50.876;4.246;2023-08-08T06:47:40;8.45;;;3.13;;
23155;SDS011;11746;50.876;4.246;2023-08-08T06:50:06;15.65;;;3.83;;
23155;SDS011;11746;50.876;4.246;2023-08-08T06:52:34;10.18;;;3.80;;
23155;SDS011;11746;50.876;4.246;2023-08-08T06:55:00;9.93;;;3.00;;
23155;SDS011;11746;50.876;4.246;2023-08-08T06:57:31;13.93;;;3.35;;
23155;SDS011;11746;50.876;4.246;2023-08-08T06:59:58;8.63;;;3.15;;
23155;SDS011;11746;50.876;4.246;2023-08-08T07:02:24;13.38;;;3.90;;
23155;SDS011;11746;50.876;4.246;2023-08-08T07:04:50;10.63;;;2.95;;
23155;SDS011;11746;50.876;4.246;2023-08-08T07:07:18;12.63;;;3.60;;
23155;SDS011;11746;50.876;4.246;2023-08-08T07:09:43;8.35;;;2.95;;
23155;SDS011;11746;50.876;4.246;2023-08-08T07:12:09;10.48;;;2.85;;
23155;SDS011;11746;50.876;4.246;2023-08-08T07:14:37;8.57;;;3.10;;
23155;SDS011;11746;50.876;4.246;2023-08-08T07:17:03;9.43;;;3.10;;
23155;SDS011;11746;50.876;4.246;2023-08-08T07:19:31;16.02;;;4.03;;
23155;SDS011;11746;50.876;4.246;2023-08-08T07:21:56;14.10;;;3.75;;
23155;SDS011;11746;50.876;4.246;2023-08-08T07:24:22;10.25;;;3.35;;
23155;SDS011;11746;50.876;4.246;2023-08-08T07:26:51;12.00;;;3.75;;
23155;SDS011;11746;50.876;4.246;2023-08-08T07:29:19;12.55;;;3.67;;
23155;SDS011;11746;50.876;4.246;2023-08-08T07:31:46;12.70;;;3.60;;
23155;SDS011;11746;50.876;4.246;2023-08-08T07:34:11;10.73;;;3.13;;
23155;SDS011;11746;50.876;4.246;2023-08-08T07:36:39;10.40;;;3.97;;
23155;SDS011;11746;50.876;4.246;2023-08-08T07:39:05;12.25;;;3.22;;
23155;SDS011;11746;50.876;4.246;2023-08-08T07:41:30;13.48;;;3.53;;
23155;SDS011;11746;50.876;4.246;2023-08-08T07:43:56;11.63;;;3.58;;
23155;SDS011;11746;50.876;4.246;2023-08-08T07:46:24;9.40;;;3.40;;
23155;SDS011;11746;50.876;4.246;2023-08-08T07:48:50;12.30;;;3.65;;
23155;SDS011;11746;50.876;4.246;2023-08-08T07:51:15;11.45;;;3.15;;
23155;SDS011;11746;50.876;4.246;2023-08-08T07:53:41;18.45;;;4.68;;
23155;SDS011;11746;50.876;4.246;2023-08-08T07:56:07;14.40;;;3.90;;
23155;SDS011;11746;50.876;4.246;2023-08-08T07:58:33;12.95;;;3.42;;
23155;SDS011;11746;50.876;4.246;2023-08-08T08:00:58;14.63;;;3.38;;
23155;SDS011;11746;50.876;4.246;2023-08-08T08:03:25;13.50;;;3.85;;
23155;SDS011;11746;50.876;4.246;2023-08-08T08:05:52;9.73;;;3.63;;
23155;SDS011;11746;50.876;4.246;2023-08-08T08:08:18;14.35;;;4.05;;
23155;SDS011;11746;50.876;4.246;2023-08-08T08:10:43;14.90;;;4.32;;
23155;SDS011;11746;50.876;4.246;2023-08-08T08:13:10;13.27;;;4.13;;
23155;SDS011;11746;50.876;4.246;2023-08-08T08:15:37;11.55;;;3.67;;
23155;SDS011;11746;50.876;4.246;2023-08-08T08:18:03;12.57;;;3.53;;
23155;SDS011;11746;50.876;4.246;2023-08-08T08:20:29;13.95;;;3.05;;
23155;SDS011;11746;50.876;4.246;2023-08-08T08:22:54;11.48;;;3.17;;
23155;SDS011;11746;50.876;4.246;2023-08-08T08:25:20;10.85;;;2.90;;
23155;SDS011;11746;50.876;4.246;2023-08-08T08:27:46;8.02;;;2.92;;
23155;SDS011;11746;50.876;4.246;2023-08-08T08:30:11;11.77;;;3.03;;
23155;SDS011;11746;50.876;4.246;2023-08-08T08:32:40;10.50;;;4.00;;
23155;SDS011;11746;50.876;4.246;2023-08-08T08:35:09;8.73;;;2.63;;
23155;SDS011;11746;50.876;4.246;2023-08-08T08:37:35;10.20;;;3.22;;
23155;SDS011;11746;50.876;4.246;2023-08-08T08:40:00;10.68;;;2.22;;
23155;SDS011;11746;50.876;4.246;2023-08-08T08:42:29;10.00;;;2.70;;
23155;SDS011;11746;50.876;4.246;2023-08-08T08:44:57;10.60;;;2.60;;
23155;SDS011;11746;50.876;4.246;2023-08-08T08:47:24;20.27;;;3.20;;
23155;SDS011;11746;50.876;4.246;2023-08-08T08:49:54;9.40;;;2.35;;
23155;SDS011;11746;50.876;4.246;2023-08-08T08:52:20;8.55;;;2.50;;
23155;SDS011;11746;50.876;4.246;2023-08-08T08:54:47;9.50;;;2.67;;
23155;SDS011;11746;50.876;4.246;2023-08-08T08:57:16;10.63;;;2.67;;
23155;SDS011;11746;50.876;4.246;2023-08-08T08:59:42;7.57;;;2.40;;
23155;SDS011;11746;50.876;4.246;2023-08-08T09:02:07;13.95;;;3.42;;
23155;SDS011;11746;50.876;4.246;2023-08-08T09:04:36;9.38;;;2.47;;
23155;SDS011;11746;50.876;4.246;2023-08-08T09:07:02;9.82;;;2.53;;
23155;SDS011;11746;50.876;4.246;2023-08-08T09:09:33;7.55;;;2.40;;
23155;SDS011;11746;50.876;4.246;2023-08-08T09:11:59;10.15;;;2.88;;
23155;SDS011;11746;50.876;4.246;2023-08-08T09:14:26;9.23;;;2.05;;
23155;SDS011;11746;50.876;4.246;2023-08-08T09:16:54;10.43;;;2.42;;
23155;SDS011;11746;50.876;4.246;2023-08-08T09:19:21;9.57;;;2.30;;
23155;SDS011;11746;50.876;4.246;2023-08-08T09:21:47;8.70;;;2.05;;
23155;SDS011;11746;50.876;4.246;2023-08-08T09:24:15;7.35;;;2.45;;
23155;SDS011;11746;50.876;4.246;2023-08-08T09:26:42;10.15;;;2.50;;
23155;SDS011;11746;50.876;4.246;2023-08-08T09:29:08;8.57;;;2.10;;
23155;SDS011;11746;50.876;4.246;2023-08-08T09:31:36;7.25;;;2.05;;
23155;SDS011;11746;50.876;4.246;2023-08-08T09:34:04;6.28;;;2.00;;
23155;SDS011;11746;50.876;4.246;2023-08-08T09:36:31;5.65;;;1.90;;
23155;SDS011;11746;50.876;4.246;2023-08-08T09:39:00;6.53;;;1.83;;
23155;SDS011;11746;50.876;4.246;2023-08-08T09:41:25;5.72;;;1.73;;
23155;SDS011;11746;50.876;4.246;2023-08-08T09:43:54;9.27;;;2.20;;
23155;SDS011;11746;50.876;4.246;2023-08-08T09:46:20;7.85;;;2.00;;
23155;SDS011;11746;50.876;4.246;2023-08-08T09:48:46;5.53;;;1.52;;
23155;SDS011;11746;50.876;4.246;2023-08-08T09:51:13;5.43;;;1.60;;
23155;SDS011;11746;50.876;4.246;2023-08-08T09:53:41;9.30;;;1.95;;
23155;SDS011;11746;50.876;4.246;2023-08-08T09:56:07;7.38;;;1.67;;
23155;SDS011;11746;50.876;4.246;2023-08-08T09:58:33;3.85;;;1.65;;
23155;SDS011;11746;50.876;4.246;2023-08-08T10:01:01;6.65;;;1.83;;
23155;SDS011;11746;50.876;4.246;2023-08-08T10:03:29;6.53;;;1.92;;
23155;SDS011;11746;50.876;4.246;2023-08-08T10:05:57;5.55;;;1.65;;
23155;SDS011;11746;50.876;4.246;2023-08-08T10:08:22;6.22;;;1.50;;
23155;SDS011;11746;50.876;4.246;2023-08-08T10:10:48;3.58;;;1.58;;
23155;SDS011;11746;50.876;4.246;2023-08-08T10:13:19;3.90;;;1.35;;
23155;SDS011;11746;50.876;4.246;2023-08-08T10:15:52;4.50;;;1.13;;
23155;SDS011;11746;50.876;4.246;2023-08-08T10:18:21;6.60;;;1.15;;
23155;SDS011;11746;50.876;4.246;2023-08-08T10:20:48;8.18;;;1.67;;
23155;SDS011;11746;50.876;4.246;2023-08-08T10:23:15;7.70;;;1.50;;
23155;SDS011;11746;50.876;4.246;2023-08-08T10:25:44;4.32;;;1.30;;
23155;SDS011;11746;50.876;4.246;2023-08-08T10:28:11;5.07;;;1.45;;
23155;SDS011;11746;50.876;4.246;2023-08-08T10:33:20;4.28;;;1.23;;
23155;SDS011;11746;50.876;4.246;2023-08-08T10:38:39;2.60;;;1.50;;
23155;SDS011;11746;50.876;4.246;2023-08-08T10:41:13;3.15;;;1.10;;
23155;SDS011;11746;50.876;4.246;2023-08-08T10:43:47;6.53;;;1.27;;
23155;SDS011;11746;50.876;4.246;2023-08-08T10:46:22;6.90;;;1.17;;
23155;SDS011;11746;50.876;4.246;2023-08-08T10:48:59;5.40;;;1.50;;
23155;SDS011;11746;50.876;4.246;2023-08-08T10:51:36;6.15;;;1.55;;
23155;SDS011;11746;50.876;4.246;2023-08-08T10:54:06;3.55;;;1.25;;
23155;SDS011;11746;50.876;4.246;2023-08-08T10:56:34;4.22;;;1.27;;
23155;SDS011;11746;50.876;4.246;2023-08-08T10:59:11;4.82;;;1.38;;
23155;SDS011;11746;50.876;4.246;2023-08-08T11:01:47;4.68;;;1.30;;
23155;SDS011;11746;50.876;4.246;2023-08-08T11:04:20;6.95;;;1.40;;
23155;SDS011;11746;50.876;4.246;2023-08-08T11:09:20;7.22;;;1.48;;
23155;SDS011;11746;50.876;4.246;2023-08-08T11:11:46;4.90;;;1.58;;
23155;SDS011;11746;50.876;4.246;2023-08-08T11:14:15;4.03;;;1.40;;
23155;SDS011;11746;50.876;4.246;2023-08-08T11:16:43;5.20;;;1.58;;
23155;SDS011;11746;50.876;4.246;2023-08-08T11:19:10;4.95;;;1.05;;
23155;SDS011;11746;50.876;4.246;2023-08-08T11:21:42;4.10;;;1.30;;
23155;SDS011;11746;50.876;4.246;2023-08-08T11:24:09;4.18;;;1.17;;
23155;SDS011;11746;50.876;4.246;2023-08-08T11:26:39;5.07;;;1.30;;
23155;SDS011;11746;50.876;4.246;2023-08-08T11:29:07;4.30;;;1.13;;
23155;SDS011;11746;50.876;4.246;2023-08-08T11:31:35;7.43;;;1.27;;
23155;SDS011;11746;50.876;4.246;2023-08-08T11:34:03;3.97;;;1.13;;
23155;SDS011;11746;50.876;4.246;2023-08-08T11:36:33;2.88;;;1.10;;
23155;SDS011;11746;50.876;4.246;2023-08-08T11:39:03;7.00;;;1.25;;
23155;SDS011;11746;50.876;4.246;2023-08-08T11:41:35;3.58;;;1.60;;
23155;SDS011;11746;50.876;4.246;2023-08-08T11:44:05;2.78;;;0.82;;
23155;SDS011;11746;50.876;4.246;2023-08-08T11:46:33;3.30;;;1.30;;
23155;SDS011;11746;50.876;4.246;2023-08-08T11:49:02;5.13;;;1.15;;
23155;SDS011;11746;50.876;4.246;2023-08-08T11:51:31;6.03;;;1.20;;
23155;SDS011;11746;50.876;4.246;2023-08-08T11:54:01;4.00;;;1.20;;
23155;SDS011;11746;50.876;4.246;2023-08-08T11:56:27;6.38;;;1.00;;
23155;SDS011;11746;50.876;4.246;2023-08-08T11:58:56;2.83;;;1.13;;
23155;SDS011;11746;50.876;4.246;2023-08-08T12:01:25;4.53;;;1.48;;
23155;SDS011;11746;50.876;4.246;2023-08-08T12:03:51;5.93;;;1.13;;
23155;SDS011;11746;50.876;4.246;2023-08-08T12:06:19;4.05;;;1.27;;
23155;SDS011;11746;50.876;4.246;2023-08-08T12:08:47;3.67;;;1.35;;
23155;SDS011;11746;50.876;4.246;2023-08-08T12:11:13;3.00;;;0.90;;
23155;SDS011;11746;50.876;4.246;2023-08-08T12:13:41;5.47;;;1.27;;
23155;SDS011;11746;50.876;4.246;2023-08-08T12:16:08;5.30;;;1.00;;
23155;SDS011;11746;50.876;4.246;2023-08-08T12:18:36;3.65;;;1.15;;
23155;SDS011;11746;50.876;4.246;2023-08-08T12:21:03;3.30;;;1.15;;
23155;SDS011;11746;50.876;4.246;2023-08-08T12:23:33;2.28;;;0.82;;
23155;SDS011;11746;50.876;4.246;2023-08-08T12:26:04;3.42;;;0.90;;
23155;SDS011;11746;50.876;4.246;2023-08-08T12:28:31;3.05;;;1.23;;
23155;SDS011;11746;50.876;4.246;2023-08-08T12:30:57;1.92;;;1.02;;
23155;SDS011;11746;50.876;4.246;2023-08-08T12:33:24;2.78;;;1.00;;
23155;SDS011;11746;50.876;4.246;2023-08-08T12:35:50;3.35;;;0.98;;
23155;SDS011;11746;50.876;4.246;2023-08-08T12:38:16;4.45;;;1.20;;
23155;SDS011;11746;50.876;4.246;2023-08-08T12:40:41;2.28;;;0.90;;
23155;SDS011;11746;50.876;4.246;2023-08-08T12:43:08;3.58;;;0.93;;
23155;SDS011;11746;50.876;4.246;2023-08-08T12:45:38;3.15;;;0.85;;
23155;SDS011;11746;50.876;4.246;2023-08-08T12:48:04;2.97;;;0.80;;
23155;SDS011;11746;50.876;4.246;2023-08-08T12:50:30;2.83;;;0.90;;
23155;SDS011;11746;50.876;4.246;2023-08-08T12:52:57;6.68;;;1.10;;
23155;SDS011;11746;50.876;4.246;2023-08-08T12:55:23;4.10;;;1.10;;
23155;SDS011;11746;50.876;4.246;2023-08-08T12:57:53;3.80;;;1.02;;
23155;SDS011;11746;50.876;4.246;2023-08-08T13:00:21;2.42;;;0.82;;
23155;SDS011;11746;50.876;4.246;2023-08-08T13:02:50;3.85;;;0.90;;
23155;SDS011;11746;50.876;4.246;2023-08-08T13:05:15;2.97;;;0.98;;
23155;SDS011;11746;50.876;4.246;2023-08-08T13:07:41;1.83;;;0.80;;
23155;SDS011;11746;50.876;4.246;2023-08-08T13:10:07;3.03;;;1.17;;
23155;SDS011;11746;50.876;4.246;2023-08-08T13:12:32;3.55;;;1.15;;
23155;SDS011;11746;50.876;4.246;2023-08-08T13:15:00;3.17;;;1.00;;
23155;SDS011;11746;50.876;4.246;2023-08-08T13:17:26;2.55;;;0.90;;
23155;SDS011;11746;50.876;4.246;2023-08-08T13:19:54;4.05;;;1.25;;
23155;SDS011;11746;50.876;4.246;2023-08-08T13:22:20;2.72;;;1.13;;
23155;SDS011;11746;50.876;4.246;2023-08-08T13:24:45;3.78;;;1.20;;
23155;SDS011;11746;50.876;4.246;2023-08-08T13:27:13;2.63;;;1.00;;
23155;SDS011;11746;50.876;4.246;2023-08-08T13:29:39;3.38;;;1.45;;
23155;SDS011;11746;50.876;4.246;2023-08-08T13:32:07;2.53;;;1.00;;
23155;SDS011;11746;50.876;4.246;2023-08-08T13:34:35;2.78;;;1.23;;
23155;SDS011;11746;50.876;4.246;2023-08-08T13:37:00;1.63;;;0.70;;
23155;SDS011;11746;50.876;4.246;2023-08-08T13:39:26;2.63;;;1.00;;
23155;SDS011;11746;50.876;4.246;2023-08-08T13:41:52;1.55;;;0.60;;
23155;SDS011;11746;50.876;4.246;2023-08-08T13:44:18;2.10;;;0.90;;
23155;SDS011;11746;50.876;4.246;2023-08-08T13:46:44;3.03;;;0.93;;
23155;SDS011;11746;50.876;4.246;2023-08-08T13:49:11;7.07;;;1.20;;
23155;SDS011;11746;50.876;4.246;2023-08-08T13:51:37;3.90;;;1.05;;
23155;SDS011;11746;50.876;4.246;2023-08-08T13:54:03;3.17;;;0.80;;
23155;SDS011;11746;50.876;4.246;2023-08-08T13:56:29;3.78;;;1.02;;
23155;SDS011;11746;50.876;4.246;2023-08-08T13:58:54;4.35;;;1.00;;
23155;SDS011;11746;50.876;4.246;2023-08-08T14:01:20;3.28;;;0.73;;
23155;SDS011;11746;50.876;4.246;2023-08-08T14:03:46;4.10;;;1.00;;
23155;SDS011;11746;50.876;4.246;2023-08-08T14:06:12;1.60;;;0.75;;
23155;SDS011;11746;50.876;4.246;2023-08-08T14:08:37;3.92;;;0.90;;
23155;SDS011;11746;50.876;4.246;2023-08-08T14:11:03;2.17;;;0.70;;
23155;SDS011;11746;50.876;4.246;2023-08-08T14:13:29;2.35;;;0.70;;
23155;SDS011;11746;50.876;4.246;2023-08-08T14:15:57;2.03;;;0.68;;
23155;SDS011;11746;50.876;4.246;2023-08-08T14:18:23;3.17;;;0.90;;
23155;SDS011;11746;50.876;4.246;2023-08-08T14:20:49;2.13;;;0.82;;
23155;SDS011;11746;50.876;4.246;2023-08-08T14:23:14;1.88;;;0.65;;
23155;SDS011;11746;50.876;4.246;2023-08-08T14:25:42;2.35;;;1.10;;
23155;SDS011;11746;50.876;4.246;2023-08-08T14:28:10;1.52;;;0.82;;
23155;SDS011;11746;50.876;4.246;2023-08-08T14:30:36;4.30;;;1.30;;
23155;SDS011;11746;50.876;4.246;2023-08-08T14:33:04;2.92;;;0.90;;
23155;SDS011;11746;50.876;4.246;2023-08-08T14:35:31;2.95;;;0.70;;
23155;SDS011;11746;50.876;4.246;2023-08-08T14:37:59;2.78;;;1.00;;
23155;SDS011;11746;50.876;4.246;2023-08-08T14:40:24;4.32;;;1.20;;
23155;SDS011;11746;50.876;4.246;2023-08-08T14:42:52;2.17;;;1.10;;
23155;SDS011;11746;50.876;4.246;2023-08-08T14:45:18;2.80;;;0.70;;
23155;SDS011;11746;50.876;4.246;2023-08-08T14:47:44;2.33;;;0.70;;
23155;SDS011;11746;50.876;4.246;2023-08-08T14:50:09;1.45;;;0.70;;
23155;SDS011;11746;50.876;4.246;2023-08-08T14:52:35;1.88;;;0.80;;
23155;SDS011;11746;50.876;4.246;2023-08-08T14:55:03;1.17;;;0.60;;